sensor_id;sensor_type;location;lat;lon;timestamp;pressure;altitude;pressure_sealevel;temperature;humidity
72370;BME280;60343;-32.030;115.880;2023-04-05T00:00:28;101728.94;;;19.54;59.21
72370;BME280;60343;-32.030;115.880;2023-04-05T00:03:04;101733.13;;;19.77;58.98
72370;BME280;60343;-32.030;115.880;2023-04-05T00:05:39;101737.91;;;20.01;57.74
72370;BME280;60343;-32.030;115.880;2023-04-05T00:08:16;101746.00;;;20.14;57.28
72370;BME280;60343;-32.030;115.880;2023-04-05T00:10:53;101743.06;;;20.42;56.86
72370;BME280;60343;-32.030;115.880;2023-04-05T00:13:33;101746.78;;;20.47;56.91
72370;BME280;60343;-32.030;115.880;2023-04-05T00:16:08;101748.81;;;20.65;55.97
72370;BME280;60343;-32.030;115.880;2023-04-05T00:18:42;101736.38;;;20.82;54.63
72370;BME280;60343;-32.030;115.880;2023-04-05T00:21:18;101742.78;;;21.01;54.78
72370;BME280;60343;-32.030;115.880;2023-04-05T00:23:54;101754.13;;;21.61;53.92
72370;BME280;60343;-32.030;115.880;2023-04-05T00:26:29;101755.81;;;21.87;53.14
72370;BME280;60343;-32.030;115.880;2023-04-05T00:29:09;101766.88;;;21.92;52.58
72370;BME280;60343;-32.030;115.880;2023-04-05T00:31:43;101768.75;;;22.16;51.57
72370;BME280;60343;-32.030;115.880;2023-04-05T00:34:18;101759.00;;;22.27;51.31
72370;BME280;60343;-32.030;115.880;2023-04-05T00:36:52;101767.78;;;22.29;50.27
72370;BME280;60343;-32.030;115.880;2023-04-05T00:39:27;101765.13;;;22.40;50.25
72370;BME280;60343;-32.030;115.880;2023-04-05T00:42:03;101766.50;;;22.67;48.82
72370;BME280;60343;-32.030;115.880;2023-04-05T00:44:43;101762.38;;;22.95;49.68
72370;BME280;60343;-32.030;115.880;2023-04-05T00:47:17;101752.72;;;23.10;48.58
72370;BME280;60343;-32.030;115.880;2023-04-05T00:49:52;101752.78;;;23.34;47.20
72370;BME280;60343;-32.030;115.880;2023-04-05T00:52:28;101762.34;;;23.55;47.45
72370;BME280;60343;-32.030;115.880;2023-04-05T00:55:04;101763.31;;;23.60;45.46
72370;BME280;60343;-32.030;115.880;2023-04-05T00:57:40;101769.03;;;23.70;47.33
72370;BME280;60343;-32.030;115.880;2023-04-05T01:00:22;101772.53;;;24.01;46.20
72370;BME280;60343;-32.030;115.880;2023-04-05T01:02:59;101770.63;;;24.13;45.90
72370;BME280;60343;-32.030;115.880;2023-04-05T01:05:39;101775.16;;;24.42;44.60
72370;BME280;60343;-32.030;115.880;2023-04-05T01:08:21;101769.03;;;24.63;43.28
72370;BME280;60343;-32.030;115.880;2023-04-05T01:11:02;101771.50;;;24.88;43.50
72370;BME280;60343;-32.030;115.880;2023-04-05T01:13:37;101770.28;;;24.84;42.38
72370;BME280;60343;-32.030;115.880;2023-04-05T01:16:17;101771.19;;;25.01;42.78
72370;BME280;60343;-32.030;115.880;2023-04-05T01:18:53;101779.22;;;24.91;42.25
72370;BME280;60343;-32.030;115.880;2023-04-05T01:21:45;101774.56;;;24.92;42.69
72370;BME280;60343;-32.030;115.880;2023-04-05T01:24:28;101781.22;;;24.96;42.62
72370;BME280;60343;-32.030;115.880;2023-04-05T01:27:07;101782.78;;;24.92;42.76
72370;BME280;60343;-32.030;115.880;2023-04-05T01:29:56;101774.09;;;25.23;41.95
72370;BME280;60343;-32.030;115.880;2023-04-05T01:32:43;101780.22;;;25.58;41.65
72370;BME280;60343;-32.030;115.880;2023-04-05T01:35:24;101778.19;;;25.54;41.69
72370;BME280;60343;-32.030;115.880;2023-04-05T01:38:03;101774.41;;;25.55;41.12
72370;BME280;60343;-32.030;115.880;2023-04-05T01:40:39;101764.94;;;25.62;41.16
72370;BME280;60343;-32.030;115.880;2023-04-05T01:43:15;101764.69;;;25.81;41.61
72370;BME280;60343;-32.030;115.880;2023-04-05T01:45:55;101753.81;;;25.69;41.03
72370;BME280;60343;-32.030;115.880;2023-04-05T01:48:30;101755.81;;;25.90;41.08
72370;BME280;60343;-32.030;115.880;2023-04-05T01:51:04;101745.78;;;26.01;40.94
72370;BME280;60343;-32.030;115.880;2023-04-05T01:53:39;101748.19;;;26.14;40.06
72370;BME280;60343;-32.030;115.880;2023-04-05T01:56:14;101751.72;;;26.31;40.32
72370;BME280;60343;-32.030;115.880;2023-04-05T01:58:48;101744.84;;;26.12;40.51
72370;BME280;60343;-32.030;115.880;2023-04-05T02:01:29;101745.25;;;26.21;40.01
72370;BME280;60343;-32.030;115.880;2023-04-05T02:04:03;101746.66;;;25.85;40.72
72370;BME280;60343;-32.030;115.880;2023-04-05T02:06:38;101759.09;;;25.92;40.17
72370;BME280;60343;-32.030;115.880;2023-04-05T02:09:12;101758.78;;;25.89;40.96
72370;BME280;60343;-32.030;115.880;2023-04-05T02:11:47;101744.63;;;25.97;40.11
72370;BME280;60343;-32.030;115.880;2023-04-05T02:14:22;101743.44;;;26.26;39.96
72370;BME280;60343;-32.030;115.880;2023-04-05T02:17:03;101745.47;;;26.36;38.87
72370;BME280;60343;-32.030;115.880;2023-04-05T02:19:38;101738.72;;;26.43;39.12
72370;BME280;60343;-32.030;115.880;2023-04-05T02:22:13;101737.13;;;26.47;39.44
72370;BME280;60343;-32.030;115.880;2023-04-05T02:24:48;101729.31;;;26.83;38.88
72370;BME280;60343;-32.030;115.880;2023-04-05T02:27:23;101725.03;;;27.19;38.40
72370;BME280;60343;-32.030;115.880;2023-04-05T02:29:57;101735.88;;;27.04;38.02
72370;BME280;60343;-32.030;115.880;2023-04-05T02:32:37;101727.53;;;27.20;38.16
72370;BME280;60343;-32.030;115.880;2023-04-05T02:35:12;101716.00;;;27.23;37.90
72370;BME280;60343;-32.030;115.880;2023-04-05T02:37:47;101727.72;;;27.41;37.19
72370;BME280;60343;-32.030;115.880;2023-04-05T02:40:23;101718.69;;;27.45;37.00
72370;BME280;60343;-32.030;115.880;2023-04-05T02:42:57;101711.72;;;27.38;36.97
72370;BME280;60343;-32.030;115.880;2023-04-05T02:45:32;101706.22;;;27.38;36.69
72370;BME280;60343;-32.030;115.880;2023-04-05T02:48:12;101698.69;;;27.50;36.56
72370;BME280;60343;-32.030;115.880;2023-04-05T02:50:48;101695.13;;;27.54;36.31
72370;BME280;60343;-32.030;115.880;2023-04-05T02:53:22;101691.38;;;27.07;36.08
72370;BME280;60343;-32.030;115.880;2023-04-05T02:55:57;101687.00;;;27.06;37.23
72370;BME280;60343;-32.030;115.880;2023-04-05T02:58:32;101688.53;;;26.97;37.34
72370;BME280;60343;-32.030;115.880;2023-04-05T03:01:07;101686.66;;;27.02;36.93
72370;BME280;60343;-32.030;115.880;2023-04-05T03:03:49;101682.94;;;26.86;38.45
72370;BME280;60343;-32.030;115.880;2023-04-05T03:06:24;101673.41;;;26.94;38.71
72370;BME280;60343;-32.030;115.880;2023-04-05T03:08:58;101679.88;;;26.18;39.67
72370;BME280;60343;-32.030;115.880;2023-04-05T03:11:33;101680.22;;;25.33;41.37
72370;BME280;60343;-32.030;115.880;2023-04-05T03:14:08;101678.63;;;25.20;41.78
72370;BME280;60343;-32.030;115.880;2023-04-05T03:16:43;101681.41;;;25.70;42.58
72370;BME280;60343;-32.030;115.880;2023-04-05T03:19:23;101671.84;;;25.73;41.63
72370;BME280;60343;-32.030;115.880;2023-04-05T03:21:58;101674.16;;;25.14;42.30
72370;BME280;60343;-32.030;115.880;2023-04-05T03:24:32;101660.72;;;25.62;41.42
72370;BME280;60343;-32.030;115.880;2023-04-05T03:27:08;101668.94;;;25.29;41.12
72370;BME280;60343;-32.030;115.880;2023-04-05T03:29:43;101664.34;;;25.51;41.00
72370;BME280;60343;-32.030;115.880;2023-04-05T03:32:17;101662.13;;;25.65;41.01
72370;BME280;60343;-32.030;115.880;2023-04-05T03:34:57;101651.75;;;26.27;40.33
72370;BME280;60343;-32.030;115.880;2023-04-05T03:37:32;101653.94;;;26.25;40.11
72370;BME280;60343;-32.030;115.880;2023-04-05T03:40:08;101654.75;;;26.26;40.73
72370;BME280;60343;-32.030;115.880;2023-04-05T03:42:43;101648.34;;;26.20;40.98
72370;BME280;60343;-32.030;115.880;2023-04-05T03:45:17;101648.69;;;26.45;40.78
72370;BME280;60343;-32.030;115.880;2023-04-05T03:47:52;101655.25;;;26.44;41.15
72370;BME280;60343;-32.030;115.880;2023-04-05T03:50:32;101649.03;;;26.11;40.57
72370;BME280;60343;-32.030;115.880;2023-04-05T03:53:07;101644.72;;;26.36;41.58
72370;BME280;60343;-32.030;115.880;2023-04-05T03:55:43;101639.34;;;26.46;41.34
72370;BME280;60343;-32.030;115.880;2023-04-05T03:58:20;101645.84;;;25.97;42.04
72370;BME280;60343;-32.030;115.880;2023-04-05T04:00:55;101623.81;;;25.92;42.27
72370;BME280;60343;-32.030;115.880;2023-04-05T04:03:29;101624.13;;;25.95;42.30
72370;BME280;60343;-32.030;115.880;2023-04-05T04:06:10;101616.19;;;25.94;43.40
72370;BME280;60343;-32.030;115.880;2023-04-05T04:08:44;101625.59;;;25.81;43.62
72370;BME280;60343;-32.030;115.880;2023-04-05T04:11:19;101628.78;;;25.73;42.94
72370;BME280;60343;-32.030;115.880;2023-04-05T04:13:54;101615.94;;;25.24;44.89
72370;BME280;60343;-32.030;115.880;2023-04-05T04:16:28;101617.69;;;25.30;45.57
72370;BME280;60343;-32.030;115.880;2023-04-05T04:19:03;101612.00;;;25.53;45.26
72370;BME280;60343;-32.030;115.880;2023-04-05T04:21:43;101615.69;;;25.58;44.13
72370;BME280;60343;-32.030;115.880;2023-04-05T04:24:19;101614.16;;;25.68;43.89
72370;BME280;60343;-32.030;115.880;2023-04-05T04:26:53;101615.00;;;25.68;44.15
72370;BME280;60343;-32.030;115.880;2023-04-05T04:29:28;101601.19;;;25.80;44.37
72370;BME280;60343;-32.030;115.880;2023-04-05T04:32:05;101608.81;;;25.78;44.07
72370;BME280;60343;-32.030;115.880;2023-04-05T04:34:40;101596.97;;;25.94;43.52
72370;BME280;60343;-32.030;115.880;2023-04-05T04:37:22;101591.50;;;25.55;44.78
72370;BME280;60343;-32.030;115.880;2023-04-05T04:39:57;101595.41;;;25.43;44.53
72370;BME280;60343;-32.030;115.880;2023-04-05T04:42:33;101589.47;;;25.68;43.54
72370;BME280;60343;-32.030;115.880;2023-04-05T04:45:10;101582.09;;;25.68;44.18
72370;BME280;60343;-32.030;115.880;2023-04-05T04:47:45;101574.16;;;25.72;43.46
72370;BME280;60343;-32.030;115.880;2023-04-05T04:50:21;101576.66;;;25.73;43.33
72370;BME280;60343;-32.030;115.880;2023-04-05T04:53:01;101578.19;;;25.86;42.55
72370;BME280;60343;-32.030;115.880;2023-04-05T04:55:36;101573.22;;;25.83;42.61
72370;BME280;60343;-32.030;115.880;2023-04-05T04:58:11;101565.31;;;25.86;40.94
72370;BME280;60343;-32.030;115.880;2023-04-05T05:00:46;101562.81;;;25.63;42.31
72370;BME280;60343;-32.030;115.880;2023-04-05T05:03:21;101560.66;;;25.48;43.15
72370;BME280;60343;-32.030;115.880;2023-04-05T05:05:55;101553.75;;;25.62;43.08
72370;BME280;60343;-32.030;115.880;2023-04-05T05:08:35;101555.69;;;25.84;42.06
72370;BME280;60343;-32.030;115.880;2023-04-05T05:11:10;101548.13;;;25.96;41.37
72370;BME280;60343;-32.030;115.880;2023-04-05T05:13:46;101550.50;;;25.87;41.55
72370;BME280;60343;-32.030;115.880;2023-04-05T05:16:20;101548.47;;;25.78;42.27
72370;BME280;60343;-32.030;115.880;2023-04-05T05:18:55;101548.06;;;25.91;42.39
72370;BME280;60343;-32.030;115.880;2023-04-05T05:21:30;101544.63;;;26.00;42.22
72370;BME280;60343;-32.030;115.880;2023-04-05T05:24:10;101550.03;;;26.17;41.58
72370;BME280;60343;-32.030;115.880;2023-04-05T05:26:44;101554.00;;;26.26;40.73
72370;BME280;60343;-32.030;115.880;2023-04-05T05:29:19;101538.81;;;25.97;41.82
72370;BME280;60343;-32.030;115.880;2023-04-05T05:31:54;101540.78;;;26.01;43.01
72370;BME280;60343;-32.030;115.880;2023-04-05T05:34:28;101547.88;;;25.76;43.45
72370;BME280;60343;-32.030;115.880;2023-04-05T05:37:03;101536.31;;;26.17;42.68
72370;BME280;60343;-32.030;115.880;2023-04-05T05:39:43;101532.28;;;26.52;42.01
72370;BME280;60343;-32.030;115.880;2023-04-05T05:42:18;101534.31;;;26.93;40.65
72370;BME280;60343;-32.030;115.880;2023-04-05T05:44:52;101534.63;;;26.97;39.73
72370;BME280;60343;-32.030;115.880;2023-04-05T05:47:27;101535.28;;;26.82;41.03
72370;BME280;60343;-32.030;115.880;2023-04-05T05:50:01;101531.91;;;27.02;40.27
72370;BME280;60343;-32.030;115.880;2023-04-05T05:52:36;101522.41;;;27.19;40.21
72370;BME280;60343;-32.030;115.880;2023-04-05T05:55:16;101527.47;;;27.38;39.95
72370;BME280;60343;-32.030;115.880;2023-04-05T05:57:51;101511.06;;;27.53;40.31
72370;BME280;60343;-32.030;115.880;2023-04-05T06:00:26;101519.78;;;27.40;39.43
72370;BME280;60343;-32.030;115.880;2023-04-05T06:03:00;101515.38;;;27.39;39.53
72370;BME280;60343;-32.030;115.880;2023-04-05T06:05:36;101510.38;;;27.25;40.15
72370;BME280;60343;-32.030;115.880;2023-04-05T06:08:10;101518.69;;;26.99;40.14
72370;BME280;60343;-32.030;115.880;2023-04-05T06:10:51;101512.78;;;26.80;40.72
72370;BME280;60343;-32.030;115.880;2023-04-05T06:13:25;101518.47;;;26.41;41.54
72370;BME280;60343;-32.030;115.880;2023-04-05T06:16:01;101524.56;;;26.48;40.50
72370;BME280;60343;-32.030;115.880;2023-04-05T06:18:36;101515.66;;;26.36;38.31
72370;BME280;60343;-32.030;115.880;2023-04-05T06:21:10;101521.84;;;26.48;39.07
72370;BME280;60343;-32.030;115.880;2023-04-05T06:23:45;101520.78;;;26.55;39.53
72370;BME280;60343;-32.030;115.880;2023-04-05T06:26:26;101516.19;;;26.60;38.33
72370;BME280;60343;-32.030;115.880;2023-04-05T06:29:00;101521.06;;;26.85;36.77
72370;BME280;60343;-32.030;115.880;2023-04-05T06:31:36;101517.97;;;27.13;37.14
72370;BME280;60343;-32.030;115.880;2023-04-05T06:34:12;101519.03;;;27.07;37.81
72370;BME280;60343;-32.030;115.880;2023-04-05T06:36:47;101515.78;;;27.10;37.50
72370;BME280;60343;-32.030;115.880;2023-04-05T06:39:22;101519.53;;;27.41;37.36
72370;BME280;60343;-32.030;115.880;2023-04-05T06:42:02;101523.75;;;27.17;36.67
72370;BME280;60343;-32.030;115.880;2023-04-05T06:44:37;101517.94;;;26.76;39.07
72370;BME280;60343;-32.030;115.880;2023-04-05T06:47:11;101517.91;;;27.03;39.18
72370;BME280;60343;-32.030;115.880;2023-04-05T06:49:46;101518.97;;;26.97;39.76
72370;BME280;60343;-32.030;115.880;2023-04-05T06:52:20;101521.66;;;26.92;39.89
72370;BME280;60343;-32.030;115.880;2023-04-05T06:54:55;101526.94;;;26.99;39.95
72370;BME280;60343;-32.030;115.880;2023-04-05T06:57:35;101527.44;;;26.32;42.54
72370;BME280;60343;-32.030;115.880;2023-04-05T07:00:11;101529.03;;;26.55;41.70
72370;BME280;60343;-32.030;115.880;2023-04-05T07:02:45;101524.19;;;26.13;40.65
72370;BME280;60343;-32.030;115.880;2023-04-05T07:05:20;101528.16;;;26.22;40.18
72370;BME280;60343;-32.030;115.880;2023-04-05T07:07:54;101537.63;;;26.36;39.82
72370;BME280;60343;-32.030;115.880;2023-04-05T07:10:29;101539.19;;;26.54;39.74
72370;BME280;60343;-32.030;115.880;2023-04-05T07:13:09;101533.69;;;26.86;39.77
72370;BME280;60343;-32.030;115.880;2023-04-05T07:15:43;101536.13;;;27.14;39.08
72370;BME280;60343;-32.030;115.880;2023-04-05T07:18:18;101535.94;;;27.26;38.86
72370;BME280;60343;-32.030;115.880;2023-04-05T07:20:54;101527.06;;;27.14;39.49
72370;BME280;60343;-32.030;115.880;2023-04-05T07:23:30;101525.50;;;26.91;40.67
72370;BME280;60343;-32.030;115.880;2023-04-05T07:26:05;101527.31;;;26.48;41.64
72370;BME280;60343;-32.030;115.880;2023-04-05T07:28:45;101529.81;;;26.50;42.03
72370;BME280;60343;-32.030;115.880;2023-04-05T07:31:19;101529.75;;;26.77;41.69
72370;BME280;60343;-32.030;115.880;2023-04-05T07:33:54;101529.91;;;26.60;40.59
72370;BME280;60343;-32.030;115.880;2023-04-05T07:36:28;101527.22;;;26.38;41.78
72370;BME280;60343;-32.030;115.880;2023-04-05T07:39:03;101527.06;;;26.23;41.42
72370;BME280;60343;-32.030;115.880;2023-04-05T07:41:38;101520.13;;;26.42;41.26
72370;BME280;60343;-32.030;115.880;2023-04-05T07:44:18;101520.13;;;25.94;42.25
72370;BME280;60343;-32.030;115.880;2023-04-05T07:46:52;101533.28;;;25.32;43.72
72370;BME280;60343;-32.030;115.880;2023-04-05T07:49:27;101531.44;;;24.99;44.67
72370;BME280;60343;-32.030;115.880;2023-04-05T07:52:01;101537.47;;;24.84;44.95
72370;BME280;60343;-32.030;115.880;2023-04-05T07:54:36;101537.59;;;24.44;46.21
72370;BME280;60343;-32.030;115.880;2023-04-05T07:57:17;101541.69;;;24.30;47.07
72370;BME280;60343;-32.030;115.880;2023-04-05T07:59:57;101536.84;;;24.20;47.12
72370;BME280;60343;-32.030;115.880;2023-04-05T08:02:31;101543.22;;;23.98;47.89
72370;BME280;60343;-32.030;115.880;2023-04-05T08:05:06;101540.88;;;23.89;46.98
72370;BME280;60343;-32.030;115.880;2023-04-05T08:07:41;101545.22;;;23.62;49.54
72370;BME280;60343;-32.030;115.880;2023-04-05T08:10:15;101541.78;;;23.55;50.61
72370;BME280;60343;-32.030;115.880;2023-04-05T08:12:50;101540.25;;;23.47;51.31
72370;BME280;60343;-32.030;115.880;2023-04-05T08:15:30;101546.78;;;23.46;51.75
72370;BME280;60343;-32.030;115.880;2023-04-05T08:18:05;101550.69;;;23.62;51.30
72370;BME280;60343;-32.030;115.880;2023-04-05T08:20:40;101542.25;;;23.64;50.84
72370;BME280;60343;-32.030;115.880;2023-04-05T08:23:14;101541.66;;;23.62;50.72
72370;BME280;60343;-32.030;115.880;2023-04-05T08:25:49;101545.13;;;23.45;51.48
72370;BME280;60343;-32.030;115.880;2023-04-05T08:28:24;101538.56;;;23.35;52.72
72370;BME280;60343;-32.030;115.880;2023-04-05T08:31:04;101544.41;;;23.27;53.47
72370;BME280;60343;-32.030;115.880;2023-04-05T08:33:38;101549.16;;;23.31;53.85
72370;BME280;60343;-32.030;115.880;2023-04-05T08:36:13;101539.88;;;23.21;53.38
72370;BME280;60343;-32.030;115.880;2023-04-05T08:38:47;101543.44;;;23.21;53.80
72370;BME280;60343;-32.030;115.880;2023-04-05T08:41:23;101544.75;;;23.30;51.89
72370;BME280;60343;-32.030;115.880;2023-04-05T08:44:01;101532.25;;;23.34;51.94
72370;BME280;60343;-32.030;115.880;2023-04-05T08:46:43;101545.94;;;23.23;51.89
72370;BME280;60343;-32.030;115.880;2023-04-05T08:49:19;101546.56;;;23.13;52.97
72370;BME280;60343;-32.030;115.880;2023-04-05T08:51:54;101549.03;;;23.15;52.70
72370;BME280;60343;-32.030;115.880;2023-04-05T08:54:29;101548.66;;;22.99;51.96
72370;BME280;60343;-32.030;115.880;2023-04-05T08:57:05;101549.84;;;22.92;52.60
72370;BME280;60343;-32.030;115.880;2023-04-05T08:59:41;101549.81;;;22.80;53.38
72370;BME280;60343;-32.030;115.880;2023-04-05T09:02:24;101549.25;;;22.78;53.72
72370;BME280;60343;-32.030;115.880;2023-04-05T09:04:59;101547.75;;;22.64;53.45
72370;BME280;60343;-32.030;115.880;2023-04-05T09:07:36;101544.16;;;22.63;54.10
72370;BME280;60343;-32.030;115.880;2023-04-05T09:10:14;101534.09;;;22.52;54.59
72370;BME280;60343;-32.030;115.880;2023-04-05T09:12:51;101546.75;;;22.47;55.35
72370;BME280;60343;-32.030;115.880;2023-04-05T09:15:26;101543.41;;;22.45;56.21
72370;BME280;60343;-32.030;115.880;2023-04-05T09:18:08;101544.34;;;22.39;56.95
72370;BME280;60343;-32.030;115.880;2023-04-05T09:20:42;101534.97;;;22.35;57.06
72370;BME280;60343;-32.030;115.880;2023-04-05T09:23:17;101538.53;;;22.35;57.14
72370;BME280;60343;-32.030;115.880;2023-04-05T09:25:51;101542.66;;;22.26;56.57
72370;BME280;60343;-32.030;115.880;2023-04-05T09:28:40;101539.28;;;22.12;56.91
72370;BME280;60343;-32.030;115.880;2023-04-05T09:31:35;101542.31;;;22.04;57.60
72370;BME280;60343;-32.030;115.880;2023-04-05T09:34:20;101554.91;;;21.87;58.40
72370;BME280;60343;-32.030;115.880;2023-04-05T09:36:54;101554.59;;;21.95;57.97
72370;BME280;60343;-32.030;115.880;2023-04-05T09:39:30;101551.91;;;21.89;57.77
72370;BME280;60343;-32.030;115.880;2023-04-05T09:42:06;101554.34;;;21.78;58.67
72370;BME280;60343;-32.030;115.880;2023-04-05T09:44:54;101555.13;;;21.86;58.16
72370;BME280;60343;-32.030;115.880;2023-04-05T09:47:29;101567.94;;;21.67;58.92
72370;BME280;60343;-32.030;115.880;2023-04-05T09:50:20;101564.50;;;21.71;59.29
72370;BME280;60343;-32.030;115.880;2023-04-05T09:53:05;101570.34;;;21.57;60.70
72370;BME280;60343;-32.030;115.880;2023-04-05T09:55:43;101562.00;;;21.52;61.20
72370;BME280;60343;-32.030;115.880;2023-04-05T09:58:20;101570.09;;;21.58;61.20
72370;BME280;60343;-32.030;115.880;2023-04-05T10:00:57;101566.44;;;21.28;62.12
72370;BME280;60343;-32.030;115.880;2023-04-05T10:03:32;101558.97;;;21.42;62.39
72370;BME280;60343;-32.030;115.880;2023-04-05T10:06:28;101568.78;;;21.24;62.86
72370;BME280;60343;-32.030;115.880;2023-04-05T10:09:08;101568.44;;;21.14;63.06
72370;BME280;60343;-32.030;115.880;2023-04-05T10:11:44;101571.06;;;21.27;62.44
72370;BME280;60343;-32.030;115.880;2023-04-05T10:14:19;101576.88;;;21.06;63.19
72370;BME280;60343;-32.030;115.880;2023-04-05T10:17:07;101577.03;;;20.86;63.67
72370;BME280;60343;-32.030;115.880;2023-04-05T10:19:56;101571.25;;;20.76;64.34
72370;BME280;60343;-32.030;115.880;2023-04-05T10:22:44;101573.84;;;20.65;64.55
72370;BME280;60343;-32.030;115.880;2023-04-05T10:25:26;101584.84;;;20.45;65.28
72370;BME280;60343;-32.030;115.880;2023-04-05T10:28:07;101586.66;;;20.58;65.37
72370;BME280;60343;-32.030;115.880;2023-04-05T10:30:46;101589.91;;;20.41;65.75
72370;BME280;60343;-32.030;115.880;2023-04-05T10:33:29;101589.94;;;20.35;65.98
72370;BME280;60343;-32.030;115.880;2023-04-05T10:36:11;101597.00;;;20.42;66.33
72370;BME280;60343;-32.030;115.880;2023-04-05T10:38:55;101595.34;;;20.41;66.31
72370;BME280;60343;-32.030;115.880;2023-04-05T10:41:36;101601.38;;;20.43;66.32
72370;BME280;60343;-32.030;115.880;2023-04-05T10:44:14;101605.97;;;20.49;66.51
72370;BME280;60343;-32.030;115.880;2023-04-05T10:46:51;101611.59;;;20.48;66.60
72370;BME280;60343;-32.030;115.880;2023-04-05T10:49:32;101600.59;;;20.36;66.81
72370;BME280;60343;-32.030;115.880;2023-04-05T10:52:10;101608.66;;;20.56;66.83
72370;BME280;60343;-32.030;115.880;2023-04-05T10:54:52;101608.69;;;20.49;66.66
72370;BME280;60343;-32.030;115.880;2023-04-05T10:57:29;101610.84;;;20.34;66.98
72370;BME280;60343;-32.030;115.880;2023-04-05T11:00:05;101616.75;;;20.31;67.62
72370;BME280;60343;-32.030;115.880;2023-04-05T11:02:40;101618.78;;;20.29;67.87
72370;BME280;60343;-32.030;115.880;2023-04-05T11:05:35;101617.19;;;20.22;67.84
72370;BME280;60343;-32.030;115.880;2023-04-05T11:08:11;101622.63;;;20.22;68.18
72370;BME280;60343;-32.030;115.880;2023-04-05T11:10:52;101630.59;;;20.10;68.72
72370;BME280;60343;-32.030;115.880;2023-04-05T11:13:47;101631.72;;;19.89;69.28
72370;BME280;60343;-32.030;115.880;2023-04-05T11:16:23;101633.19;;;19.79;69.14
72370;BME280;60343;-32.030;115.880;2023-04-05T11:18:58;101632.16;;;19.73;69.83
72370;BME280;60343;-32.030;115.880;2023-04-05T11:21:32;101633.63;;;19.62;70.06
72370;BME280;60343;-32.030;115.880;2023-04-05T11:24:08;101638.88;;;19.57;70.55
72370;BME280;60343;-32.030;115.880;2023-04-05T11:27:08;101645.34;;;19.43;71.28
72370;BME280;60343;-32.030;115.880;2023-04-05T11:29:48;101649.94;;;19.36;70.84
72370;BME280;60343;-32.030;115.880;2023-04-05T11:32:23;101635.75;;;19.34;71.18
72370;BME280;60343;-32.030;115.880;2023-04-05T11:35:04;101644.09;;;19.19;71.46
72370;BME280;60343;-32.030;115.880;2023-04-05T11:37:53;101642.00;;;19.15;72.20
72370;BME280;60343;-32.030;115.880;2023-04-05T11:40:28;101643.88;;;19.08;72.21
72370;BME280;60343;-32.030;115.880;2023-04-05T11:43:09;101652.84;;;19.08;72.57
72370;BME280;60343;-32.030;115.880;2023-04-05T11:45:44;101658.28;;;19.08;72.56
72370;BME280;60343;-32.030;115.880;2023-04-05T11:48:18;101665.78;;;19.06;73.03
72370;BME280;60343;-32.030;115.880;2023-04-05T11:50:56;101662.03;;;19.07;73.11
72370;BME280;60343;-32.030;115.880;2023-04-05T11:53:32;101669.97;;;19.09;72.98
72370;BME280;60343;-32.030;115.880;2023-04-05T11:56:10;101663.72;;;19.08;73.12
72370;BME280;60343;-32.030;115.880;2023-04-05T11:58:52;101667.06;;;19.17;73.08
72370;BME280;60343;-32.030;115.880;2023-04-05T12:01:29;101682.50;;;19.10;73.18
72370;BME280;60343;-32.030;115.880;2023-04-05T12:04:07;101682.06;;;18.93;73.53
72370;BME280;60343;-32.030;115.880;2023-04-05T12:06:41;101687.47;;;18.86;73.72
72370;BME280;60343;-32.030;115.880;2023-04-05T12:09:16;101682.44;;;18.77;73.72
72370;BME280;60343;-32.030;115.880;2023-04-05T12:11:53;101682.81;;;18.67;74.02
72370;BME280;60343;-32.030;115.880;2023-04-05T12:14:33;101684.09;;;18.65;74.21
72370;BME280;60343;-32.030;115.880;2023-04-05T12:17:07;101689.22;;;18.53;74.72
72370;BME280;60343;-32.030;115.880;2023-04-05T12:19:42;101692.31;;;18.43;74.72
72370;BME280;60343;-32.030;115.880;2023-04-05T12:22:17;101696.66;;;18.38;74.64
72370;BME280;60343;-32.030;115.880;2023-04-05T12:24:52;101708.13;;;18.33;74.97
72370;BME280;60343;-32.030;115.880;2023-04-05T12:27:26;101704.75;;;18.25;75.06
72370;BME280;60343;-32.030;115.880;2023-04-05T12:30:14;101711.56;;;18.21;75.21
72370;BME280;60343;-32.030;115.880;2023-04-05T12:32:50;101711.94;;;18.11;75.86
72370;BME280;60343;-32.030;115.880;2023-04-05T12:35:29;101710.44;;;18.02;76.30
72370;BME280;60343;-32.030;115.880;2023-04-05T12:38:05;101722.31;;;18.01;75.72
72370;BME280;60343;-32.030;115.880;2023-04-05T12:40:41;101720.16;;;17.90;76.22
72370;BME280;60343;-32.030;115.880;2023-04-05T12:43:17;101717.41;;;17.83;76.80
72370;BME280;60343;-32.030;115.880;2023-04-05T12:45:59;101718.19;;;17.77;76.61
72370;BME280;60343;-32.030;115.880;2023-04-05T12:48:37;101717.50;;;17.69;77.04
72370;BME280;60343;-32.030;115.880;2023-04-05T12:51:15;101716.25;;;17.71;77.70
72370;BME280;60343;-32.030;115.880;2023-04-05T12:53:49;101711.91;;;17.70;77.25
72370;BME280;60343;-32.030;115.880;2023-04-05T12:56:24;101704.56;;;17.64;77.27
72370;BME280;60343;-32.030;115.880;2023-04-05T12:59:05;101712.88;;;17.63;77.73
72370;BME280;60343;-32.030;115.880;2023-04-05T13:01:45;101706.34;;;17.57;77.44
72370;BME280;60343;-32.030;115.880;2023-04-05T13:04:20;101697.53;;;17.48;78.30
72370;BME280;60343;-32.030;115.880;2023-04-05T13:06:54;101696.50;;;17.49;78.11
72370;BME280;60343;-32.030;115.880;2023-04-05T13:09:29;101705.50;;;17.56;78.42